Flight Track Log - Related Links

Times and Time Zones

All times are in EDT time to prevent confusion due to time zone crossing. See the SWA303 flight status page for this flight to view local times or setup timezone preferences in your user account.

Time Position Orientation Groundspeed Altitude Reporting Facility
EDT Latitude Longitude Course Direction KTS MPH feet Rate Location/Type
04:15PM 33.9500 -118.4667 256° West 169 194 1,700  Level Southern California TRACON
04:16PM 33.9333 -118.5500 256° West 225 259 3,900 2,054 Climbing Southern California TRACON
04:16PM 33.9356 -118.6086 273° West 257 296 5,500 2,748 Climbing Los Angeles Center
04:17PM 33.9781 -118.6797 306° West 279 321 8,800 1,694 Climbing Los Angeles Center
04:18PM 34.0558 -118.6986 349° North 285 328 9,000 96 Climbing Los Angeles Center
04:19PM 34.1150 -118.6625 27° Northeast 280 322 9,000 1,296 Level Los Angeles Center
04:21PM 34.1939 -118.6747 353° North 287 330 11,700 2,661 Climbing Los Angeles Center
04:22PM 34.2958 -118.6903 353° North 304 350 14,500 2,468 Climbing Los Angeles Center
04:23PM 34.3978 -118.7050 353° North 366 421 16,800 2,419 Climbing Los Angeles Center
04:24PM 34.5022 -118.7214 353° North 378 435 19,500 2,468 Climbing Los Angeles Center
04:25PM 34.6056 -118.7606 343° North 389 448 21,900 2,274 Climbing Los Angeles Center
04:26PM 34.7078 -118.8158 336° Northwest 400 460 24,200 2,274 Climbing Los Angeles Center
04:27PM 34.8342 -118.8769 338° Northwest 406 467 26,600 2,064 Climbing Los Angeles Center
04:28PM 34.9492 -118.9264 341° North 420 483 28,500 1,728 Climbing Los Angeles Center
04:29PM 35.0625 -118.9786 339° North 435 501 30,200 1,839 Climbing Los Angeles Center
04:30PM 35.1775 -119.0281 341° North 439 505 32,300 1,984 Climbing Los Angeles Center
04:31PM 35.2903 -119.0794 340° North 437 503 34,300 1,676 Climbing Los Angeles Center
04:32PM 35.4014 -119.1283 340° North 430 495 36,100 1,533 Climbing Los Angeles Center
04:33PM 35.5514 -119.1967 340° North 417 480 37,800 912 Climbing Los Angeles Center
04:34PM 35.6586 -119.2461 339° North 414 476 38,000 97 Climbing Los Angeles Center
04:35PM 35.7669 -119.2956 340° North 416 479 38,000  Level Los Angeles Center
04:36PM 35.8706 -119.3575 334° Northwest 416 479 38,000  Level Los Angeles Center
04:37PM 35.9708 -119.4217 333° Northwest 411 473 38,000  Level Los Angeles Center
04:38PM 36.0731 -119.4856 333° Northwest 411 473 38,000  Level Los Angeles Center
04:39PM 36.1950 -119.5631 333° Northwest 412 474 38,000  Level Los Angeles Center
04:40PM 36.2972 -119.6281 333° Northwest 414 476 38,000  Level Los Angeles Center
04:41PM 36.3994 -119.6922 333° Northwest 413 475 38,000  Level Los Angeles Center
04:43PM 36.5436 -119.7817 334° Northwest 420 483 38,000  Level Oakland Center
04:44PM 36.6472 -119.8481 333° Northwest 420 483 38,000 -195 Level Oakland Center
04:45PM 36.7508 -119.9139 333° Northwest 420 483 37,600 -1,355 Descending Oakland Center
04:46PM 36.8536 -119.9822 332° Northwest 418 481 35,200 -2,341 Descending Oakland Center
04:47PM 36.9744 -120.0600 333° Northwest 409 471 32,800 -2,000 Descending Oakland Center
04:48PM 37.0717 -120.1228 333° Northwest 396 456 31,100 -1,645 Descending Oakland Center
04:49PM 37.1572 -120.1797 332° Northwest 387 445 29,400 -1,935 Descending Oakland Center
04:50PM 37.2714 -120.2517 333° Northwest 382 440 27,100 -2,049 Descending Oakland Center
04:51PM 37.3644 -120.3144 332° Northwest 381 438 25,200 -1,561 Descending Oakland Center
04:52PM 37.4536 -120.3747 332° Northwest 366 421 23,900 -1,113 Descending Oakland Center
04:53PM 37.5264 -120.4528 320° Northwest 346 398 22,900 -1,022 Descending Oakland Center
04:54PM 37.6167 -120.5500 320° Northwest 343 395 21,600 -976 Descending Northern Cal TRACON
04:55PM 37.6761 -120.6028 325° Northwest 342 394 20,900 -911 Descending Oakland Center
04:56PM 37.7486 -120.6764 321° Northwest 337 388 19,900 -968 Descending Oakland Center
04:57PM 37.8200 -120.7481 322° Northwest 329 379 18,900 -1,122 Descending Oakland Center
04:58PM 37.9056 -120.8336 322° Northwest 327 376 17,600 -1,122 Descending Oakland Center
04:59PM 37.9761 -120.9056 321° Northwest 324 373 16,600 -968 Descending Oakland Center
05:00PM 38.0483 -120.9783 322° Northwest 329 379 15,600 -968 Descending Oakland Center
05:01PM 38.1144 -121.0600 316° Northwest 331 381 14,600 -1,091 Descending Oakland Center
05:02PM 38.1833 -121.1500 314° West 324 373 13,400 -1,361 Descending Northern Cal TRACON
05:03PM 38.2333 -121.2333 307° West 316 364 11,900 -1,524 Descending Northern Cal TRACON
05:04PM 38.3000 -121.3333 310° West 305 351 10,200 -942 Descending Northern Cal TRACON
05:05PM 38.3333 -121.4000 303° West 283 326 10,000 -626 Descending Northern Cal TRACON
05:06PM 38.4000 -121.4667 322° Northwest 293 337 9,000 -1,267 Descending Northern Cal TRACON
05:08PM 38.5167 -121.6000 318° Northwest 276 318 6,200 -1,367 Descending Northern Cal TRACON
05:09PM 38.5667 -121.6500 322° Northwest 267 307 4,900 -1,000 Descending Northern Cal TRACON
05:10PM 38.6333 -121.7000 330° Northwest 252 290 4,200 -524 Descending Northern Cal TRACON
05:11PM 38.7000 -121.7000 360° North 212 244 3,800 -524 Descending Northern Cal TRACON
05:12PM 38.7667 -121.7000 360° North 188 216 3,100 -850 Descending Northern Cal TRACON
05:13PM 38.7833 -121.6500 67° East 162 186 2,100 -950 Descending Northern Cal TRACON
05:14PM 38.7667 -121.6000 113° Southeast 149 171 1,200 -800 Descending Northern Cal TRACON
05:15PM 38.7333 -121.6000 180° South 138 159 500 -700 Descending Northern Cal TRACON

Login

Don't have an account? Register now (free) for customized features, flight alerts, and more!